RYR7LY LIMC-LICJ
Flight info
| Callsign | RYR7LY |
|---|---|
| Flight time | 1h 19m |
| Altitude | 37000 |
| Route | ROBAS DCT EKDIR DCT LURON |
| Aircraft | B738/M-SDE2E3FGHIRWXY/LB1 |
Departure
| Time | 2026-04-30 11:44 |
|---|---|
| Airport | Milan Malpensa International Airport (LIMC) |
Arrival
| Time | 2026-04-30 13:03 |
|---|---|
| Airport | Falcone–Borsellino Airport (LICJ) |
| Time | Latitude | Longitude | Altitude | Speed | Heading |
|---|---|---|---|---|---|
| 2026-04-30 11:35 | 45.62322 | 8.71788 | 748 ft | 1 kts | 79° |
| 2026-04-30 11:36 | 45.62324 | 8.71805 | 747 ft | 2 kts | 78° |
| 2026-04-30 11:36 | 45.62328 | 8.71837 | 750 ft | 4 kts | 79° |
| 2026-04-30 11:36 | 45.62331 | 8.71862 | 752 ft | 2 kts | 80° |
| 2026-04-30 11:36 | 45.62332 | 8.71868 | 752 ft | 0 kts | 80° |
| 2026-04-30 11:38 | 45.62332 | 8.71873 | 752 ft | 2 kts | 80° |
| 2026-04-30 11:38 | 45.62336 | 8.71904 | 751 ft | 5 kts | 80° |
| 2026-04-30 11:38 | 45.62343 | 8.71961 | 751 ft | 7 kts | 79° |
| 2026-04-30 11:38 | 45.62354 | 8.72042 | 750 ft | 10 kts | 79° |
| 2026-04-30 11:39 | 45.62320 | 8.72122 | 748 ft | 11 kts | 161° |
| 2026-04-30 11:39 | 45.62235 | 8.72148 | 750 ft | 14 kts | 161° |
| 2026-04-30 11:39 | 45.62216 | 8.72269 | 750 ft | 15 kts | 79° |
| 2026-04-30 11:39 | 45.62238 | 8.72436 | 744 ft | 20 kts | 79° |
| 2026-04-30 11:40 | 45.62265 | 8.72634 | 748 ft | 20 kts | 79° |
| 2026-04-30 11:40 | 45.62291 | 8.72829 | 751 ft | 20 kts | 79° |
| 2026-04-30 11:40 | 45.62307 | 8.72949 | 752 ft | 9 kts | 82° |
| 2026-04-30 11:40 | 45.62285 | 8.73023 | 751 ft | 8 kts | 138° |
| 2026-04-30 11:41 | 45.62230 | 8.73039 | 748 ft | 8 kts | 170° |
| 2026-04-30 11:41 | 45.62175 | 8.73053 | 749 ft | 8 kts | 169° |
| 2026-04-30 11:41 | 45.62121 | 8.73069 | 750 ft | 8 kts | 168° |
| 2026-04-30 11:41 | 45.62057 | 8.73087 | 752 ft | 11 kts | 169° |
| 2026-04-30 11:42 | 45.61973 | 8.73110 | 751 ft | 14 kts | 169° |
| 2026-04-30 11:42 | 45.61870 | 8.73139 | 751 ft | 16 kts | 168° |
| 2026-04-30 11:42 | 45.61755 | 8.73189 | 751 ft | 18 kts | 142° |
| 2026-04-30 11:42 | 45.61680 | 8.73335 | 750 ft | 19 kts | 124° |
| 2026-04-30 11:43 | 45.61603 | 8.73496 | 751 ft | 21 kts | 123° |
| 2026-04-30 11:43 | 45.61610 | 8.73703 | 742 ft | 24 kts | 39° |
| 2026-04-30 11:43 | 45.61827 | 8.73679 | 744 ft | 59 kts | 349° |
| 2026-04-30 11:43 | 45.62481 | 8.73498 | 745 ft | 130 kts | 348° |
| 2026-04-30 11:44 | 45.63536 | 8.73149 | 950 ft | 170 kts | 348° |
| 2026-04-30 11:44 | 45.64687 | 8.72830 | 1754 ft | 170 kts | 353° |
| 2026-04-30 11:44 | 45.65919 | 8.72690 | 2442 ft | 185 kts | 359° |
| 2026-04-30 11:44 | 45.67293 | 8.72653 | 2823 ft | 215 kts | 1° |
| 2026-04-30 11:45 | 45.68850 | 8.72635 | 3310 ft | 229 kts | 2° |
| 2026-04-30 11:45 | 45.70469 | 8.72619 | 4074 ft | 233 kts | 1° |
| 2026-04-30 11:45 | 45.72068 | 8.72326 | 4951 ft | 237 kts | 338° |
| 2026-04-30 11:45 | 45.73348 | 8.70857 | 5775 ft | 240 kts | 303° |
| 2026-04-30 11:46 | 45.73900 | 8.68661 | 6769 ft | 235 kts | 274° |
| 2026-04-30 11:46 | 45.73650 | 8.66345 | 7522 ft | 241 kts | 249° |
| 2026-04-30 11:46 | 45.72944 | 8.64150 | 8296 ft | 244 kts | 244° |
| 2026-04-30 11:46 | 45.72167 | 8.61986 | 9117 ft | 246 kts | 244° |
| 2026-04-30 11:47 | 45.71354 | 8.59799 | 9837 ft | 254 kts | 241° |
| 2026-04-30 11:47 | 45.70376 | 8.57550 | 10116 ft | 279 kts | 239° |
| 2026-04-30 11:47 | 45.69301 | 8.55155 | 10576 ft | 294 kts | 239° |
| 2026-04-30 11:47 | 45.68036 | 8.52690 | 10747 ft | 322 kts | 223° |
| 2026-04-30 11:48 | 45.66072 | 8.51036 | 11265 ft | 335 kts | 203° |
| 2026-04-30 11:48 | 45.63874 | 8.49786 | 11890 ft | 344 kts | 202° |
| 2026-04-30 11:48 | 45.61644 | 8.48523 | 12684 ft | 347 kts | 202° |
| 2026-04-30 11:48 | 45.59296 | 8.47628 | 13344 ft | 355 kts | 183° |
| 2026-04-30 11:49 | 45.56844 | 8.48120 | 14013 ft | 360 kts | 159° |
| 2026-04-30 11:49 | 45.54704 | 8.49945 | 14669 ft | 361 kts | 135° |
| 2026-04-30 11:49 | 45.53196 | 8.52765 | 15389 ft | 357 kts | 113° |
| 2026-04-30 11:49 | 45.52225 | 8.56016 | 16117 ft | 358 kts | 109° |
| 2026-04-30 11:50 | 45.51317 | 8.59346 | 16788 ft | 361 kts | 108° |
| 2026-04-30 11:50 | 45.50421 | 8.62704 | 17456 ft | 365 kts | 108° |
| 2026-04-30 11:50 | 45.49523 | 8.66062 | 18130 ft | 368 kts | 108° |
| 2026-04-30 11:50 | 45.48588 | 8.69525 | 18792 ft | 371 kts | 109° |
| 2026-04-30 11:51 | 45.47647 | 8.72966 | 19378 ft | 374 kts | 109° |
| 2026-04-30 11:51 | 45.46694 | 8.76427 | 19953 ft | 377 kts | 109° |
| 2026-04-30 11:51 | 45.45740 | 8.79867 | 20525 ft | 380 kts | 109° |
| 2026-04-30 11:51 | 45.44749 | 8.83428 | 21098 ft | 383 kts | 109° |
| 2026-04-30 11:52 | 45.43761 | 8.86968 | 21661 ft | 386 kts | 109° |
| 2026-04-30 11:52 | 45.42777 | 8.90486 | 22216 ft | 389 kts | 109° |
| 2026-04-30 11:52 | 45.41754 | 8.94139 | 22623 ft | 397 kts | 109° |
| 2026-04-30 11:52 | 45.40736 | 8.97769 | 23033 ft | 403 kts | 109° |
| 2026-04-30 11:53 | 45.39681 | 9.01526 | 23586 ft | 405 kts | 109° |
| 2026-04-30 11:53 | 45.38630 | 9.05255 | 24105 ft | 407 kts | 109° |
| 2026-04-30 11:53 | 45.37571 | 9.09011 | 24546 ft | 410 kts | 109° |
| 2026-04-30 11:53 | 45.36505 | 9.12787 | 24960 ft | 414 kts | 109° |
| 2026-04-30 11:54 | 45.35440 | 9.16551 | 25367 ft | 417 kts | 109° |
| 2026-04-30 11:54 | 45.34354 | 9.20385 | 25772 ft | 420 kts | 109° |
| 2026-04-30 11:54 | 45.33259 | 9.24247 | 26179 ft | 423 kts | 109° |
| 2026-04-30 11:54 | 45.32153 | 9.28140 | 26585 ft | 426 kts | 109° |
| 2026-04-30 11:55 | 45.31037 | 9.32063 | 26993 ft | 429 kts | 109° |
| 2026-04-30 11:55 | 45.29914 | 9.36002 | 27363 ft | 432 kts | 109° |
| 2026-04-30 11:55 | 45.28781 | 9.39971 | 27696 ft | 435 kts | 109° |
| 2026-04-30 11:55 | 45.27641 | 9.43957 | 28079 ft | 438 kts | 109° |
| 2026-04-30 11:56 | 45.26493 | 9.47969 | 28446 ft | 440 kts | 109° |
| 2026-04-30 11:56 | 45.25332 | 9.52016 | 28800 ft | 443 kts | 109° |
| 2026-04-30 11:56 | 45.24166 | 9.56073 | 29154 ft | 446 kts | 110° |
| 2026-04-30 11:56 | 45.22990 | 9.60162 | 29493 ft | 449 kts | 110° |
| 2026-04-30 11:57 | 45.21809 | 9.64265 | 29839 ft | 451 kts | 110° |
| 2026-04-30 11:57 | 45.20613 | 9.68405 | 30173 ft | 455 kts | 110° |
| 2026-04-30 11:57 | 45.19091 | 9.72367 | 30335 ft | 464 kts | 127° |
| 2026-04-30 11:57 | 45.16763 | 9.75548 | 30601 ft | 468 kts | 143° |
| 2026-04-30 11:58 | 45.14123 | 9.78238 | 30898 ft | 469 kts | 145° |
| 2026-04-30 11:58 | 45.11441 | 9.80883 | 31142 ft | 471 kts | 146° |
| 2026-04-30 11:58 | 45.08740 | 9.83529 | 31436 ft | 472 kts | 146° |
| 2026-04-30 11:58 | 45.06044 | 9.86185 | 31812 ft | 471 kts | 145° |
| 2026-04-30 11:59 | 45.03369 | 9.88842 | 32210 ft | 469 kts | 145° |
| 2026-04-30 11:59 | 45.00703 | 9.91509 | 32557 ft | 469 kts | 145° |
| 2026-04-30 11:59 | 44.98045 | 9.94181 | 32877 ft | 469 kts | 145° |
| 2026-04-30 11:59 | 44.95391 | 9.96852 | 33232 ft | 469 kts | 144° |
| 2026-04-30 12:00 | 44.92730 | 9.99529 | 33485 ft | 470 kts | 145° |
| 2026-04-30 12:00 | 44.90061 | 10.02213 | 33701 ft | 473 kts | 145° |
| 2026-04-30 12:00 | 44.87379 | 10.04905 | 34031 ft | 472 kts | 145° |
| 2026-04-30 12:00 | 44.84706 | 10.07585 | 34400 ft | 470 kts | 145° |
| 2026-04-30 12:01 | 44.82050 | 10.10244 | 34696 ft | 469 kts | 145° |
| 2026-04-30 12:01 | 44.79386 | 10.12907 | 34940 ft | 470 kts | 145° |
| 2026-04-30 12:01 | 44.76720 | 10.15569 | 35170 ft | 470 kts | 145° |
| 2026-04-30 12:01 | 44.74048 | 10.18233 | 35297 ft | 472 kts | 145° |
| 2026-04-30 12:02 | 44.68647 | 10.23608 | 35283 ft | 476 kts | 146° |
| 2026-04-30 12:02 | 44.63254 | 10.28965 | 35287 ft | 474 kts | 146° |
| 2026-04-30 12:03 | 44.55178 | 10.36964 | 35252 ft | 472 kts | 146° |
| 2026-04-30 12:04 | 44.49814 | 10.42261 | 35230 ft | 472 kts | 147° |
| 2026-04-30 12:04 | 44.44446 | 10.47549 | 35250 ft | 472 kts | 147° |
| 2026-04-30 12:05 | 44.39065 | 10.52838 | 35251 ft | 473 kts | 147° |
| 2026-04-30 12:05 | 44.33666 | 10.58134 | 35279 ft | 475 kts | 147° |
| 2026-04-30 12:06 | 44.28279 | 10.63406 | 35261 ft | 477 kts | 147° |
| 2026-04-30 12:06 | 44.22834 | 10.68723 | 35252 ft | 478 kts | 147° |
| 2026-04-30 12:07 | 44.16966 | 10.72945 | 35237 ft | 473 kts | 163° |
| 2026-04-30 12:07 | 44.10734 | 10.75928 | 35224 ft | 473 kts | 165° |
| 2026-04-30 12:08 | 44.04488 | 10.78884 | 35210 ft | 474 kts | 165° |
| 2026-04-30 12:08 | 43.98258 | 10.81888 | 35217 ft | 475 kts | 165° |
| 2026-04-30 12:09 | 43.92018 | 10.84925 | 35209 ft | 475 kts | 164° |
| 2026-04-30 12:09 | 43.85779 | 10.87964 | 35201 ft | 475 kts | 165° |
| 2026-04-30 12:10 | 43.79528 | 10.91001 | 35212 ft | 476 kts | 165° |
| 2026-04-30 12:10 | 43.73281 | 10.94027 | 35208 ft | 476 kts | 165° |
| 2026-04-30 12:11 | 43.67027 | 10.97049 | 35195 ft | 476 kts | 166° |
| 2026-04-30 12:11 | 43.60768 | 11.00067 | 35194 ft | 476 kts | 166° |
| 2026-04-30 12:12 | 43.55531 | 11.02587 | 35192 ft | 476 kts | 166° |
| 2026-04-30 12:12 | 43.49289 | 11.05585 | 35177 ft | 475 kts | 166° |
| 2026-04-30 12:13 | 43.43092 | 11.08554 | 35175 ft | 474 kts | 166° |
| 2026-04-30 12:13 | 43.36869 | 11.11530 | 35176 ft | 473 kts | 166° |
| 2026-04-30 12:14 | 43.30655 | 11.14494 | 35191 ft | 472 kts | 166° |
| 2026-04-30 12:14 | 43.24454 | 11.17446 | 35173 ft | 472 kts | 166° |
| 2026-04-30 12:15 | 43.18255 | 11.20390 | 35165 ft | 471 kts | 166° |
| 2026-04-30 12:15 | 43.12063 | 11.23325 | 35175 ft | 471 kts | 166° |
| 2026-04-30 12:16 | 43.05875 | 11.26252 | 35150 ft | 470 kts | 166° |
| 2026-04-30 12:16 | 42.99688 | 11.29171 | 35149 ft | 470 kts | 166° |
| 2026-04-30 12:17 | 42.90415 | 11.33537 | 35168 ft | 470 kts | 166° |
| 2026-04-30 12:17 | 42.84230 | 11.36440 | 35134 ft | 471 kts | 166° |
| 2026-04-30 12:18 | 42.78030 | 11.39344 | 35146 ft | 472 kts | 167° |
| 2026-04-30 12:18 | 42.71812 | 11.42249 | 35154 ft | 473 kts | 167° |
| 2026-04-30 12:19 | 42.65574 | 11.45159 | 35144 ft | 475 kts | 167° |
| 2026-04-30 12:19 | 42.59316 | 11.48072 | 35132 ft | 475 kts | 167° |
| 2026-04-30 12:20 | 42.53042 | 11.50987 | 35135 ft | 476 kts | 167° |
| 2026-04-30 12:20 | 42.46764 | 11.53897 | 35128 ft | 477 kts | 167° |
| 2026-04-30 12:21 | 42.40496 | 11.56797 | 35110 ft | 476 kts | 167° |
| 2026-04-30 12:21 | 42.34225 | 11.59692 | 35120 ft | 476 kts | 167° |
| 2026-04-30 12:22 | 42.27959 | 11.62578 | 35119 ft | 475 kts | 167° |
| 2026-04-30 12:22 | 42.21706 | 11.65452 | 35112 ft | 475 kts | 167° |
| 2026-04-30 12:23 | 42.15452 | 11.68320 | 35129 ft | 475 kts | 167° |
| 2026-04-30 12:23 | 42.09207 | 11.71178 | 35112 ft | 475 kts | 167° |
| 2026-04-30 12:24 | 42.02943 | 11.74039 | 35140 ft | 474 kts | 167° |
| 2026-04-30 12:24 | 41.96703 | 11.76884 | 35132 ft | 474 kts | 167° |
| 2026-04-30 12:25 | 41.90462 | 11.79723 | 35159 ft | 473 kts | 167° |
| 2026-04-30 12:25 | 41.84227 | 11.82553 | 35166 ft | 473 kts | 167° |
| 2026-04-30 12:26 | 41.78003 | 11.85372 | 35137 ft | 473 kts | 167° |
| 2026-04-30 12:26 | 41.71777 | 11.88186 | 35145 ft | 473 kts | 167° |
| 2026-04-30 12:27 | 41.65543 | 11.90998 | 35121 ft | 473 kts | 167° |
| 2026-04-30 12:27 | 41.59348 | 11.93787 | 35107 ft | 473 kts | 167° |
| 2026-04-30 12:28 | 41.53106 | 11.96591 | 35105 ft | 473 kts | 167° |
| 2026-04-30 12:28 | 41.46866 | 11.99389 | 35116 ft | 474 kts | 167° |
| 2026-04-30 12:29 | 41.40607 | 12.02190 | 35115 ft | 474 kts | 167° |
| 2026-04-30 12:29 | 41.34356 | 12.04981 | 35098 ft | 475 kts | 167° |
| 2026-04-30 12:30 | 41.28091 | 12.07773 | 35113 ft | 475 kts | 167° |
| 2026-04-30 12:30 | 41.21828 | 12.10559 | 35121 ft | 475 kts | 167° |
| 2026-04-30 12:31 | 41.15549 | 12.13345 | 35122 ft | 475 kts | 167° |
| 2026-04-30 12:31 | 41.09273 | 12.16126 | 35109 ft | 475 kts | 167° |
| 2026-04-30 12:32 | 41.03008 | 12.18895 | 35123 ft | 475 kts | 167° |
| 2026-04-30 12:32 | 40.96779 | 12.21643 | 35125 ft | 475 kts | 167° |
| 2026-04-30 12:33 | 40.90521 | 12.24399 | 35108 ft | 474 kts | 167° |
| 2026-04-30 12:33 | 40.84247 | 12.27156 | 35119 ft | 474 kts | 167° |
| 2026-04-30 12:34 | 40.78001 | 12.29895 | 35126 ft | 473 kts | 167° |
| 2026-04-30 12:34 | 40.71741 | 12.32635 | 35122 ft | 473 kts | 167° |
| 2026-04-30 12:35 | 40.65497 | 12.35362 | 35110 ft | 472 kts | 167° |
| 2026-04-30 12:35 | 40.59258 | 12.38082 | 35114 ft | 472 kts | 167° |
| 2026-04-30 12:36 | 40.53028 | 12.40793 | 35133 ft | 472 kts | 167° |
| 2026-04-30 12:36 | 40.46826 | 12.43485 | 35121 ft | 472 kts | 167° |
| 2026-04-30 12:37 | 40.40554 | 12.46203 | 35111 ft | 472 kts | 167° |
| 2026-04-30 12:37 | 40.34353 | 12.48886 | 35115 ft | 472 kts | 167° |
| 2026-04-30 12:38 | 40.28127 | 12.51573 | 35112 ft | 472 kts | 167° |
| 2026-04-30 12:38 | 40.21905 | 12.54256 | 35064 ft | 464 kts | 167° |
| 2026-04-30 12:39 | 40.18862 | 12.55569 | 34765 ft | 459 kts | 167° |
| 2026-04-30 12:39 | 40.15857 | 12.56865 | 34483 ft | 452 kts | 167° |
| 2026-04-30 12:39 | 40.12882 | 12.58144 | 34111 ft | 449 kts | 167° |
| 2026-04-30 12:39 | 40.09916 | 12.59415 | 33705 ft | 446 kts | 167° |
| 2026-04-30 12:40 | 40.06978 | 12.60673 | 33320 ft | 443 kts | 167° |
| 2026-04-30 12:40 | 40.04052 | 12.61925 | 32926 ft | 440 kts | 167° |
| 2026-04-30 12:40 | 40.01153 | 12.63165 | 32554 ft | 437 kts | 167° |
| 2026-04-30 12:40 | 39.98273 | 12.64395 | 32206 ft | 434 kts | 167° |
| 2026-04-30 12:41 | 39.95411 | 12.65617 | 31829 ft | 431 kts | 167° |
| 2026-04-30 12:41 | 39.92612 | 12.66812 | 31480 ft | 428 kts | 167° |
| 2026-04-30 12:41 | 39.89786 | 12.68016 | 31138 ft | 426 kts | 167° |
| 2026-04-30 12:41 | 39.86977 | 12.69213 | 30779 ft | 423 kts | 167° |
| 2026-04-30 12:42 | 39.84177 | 12.70404 | 30430 ft | 421 kts | 167° |
| 2026-04-30 12:42 | 39.81399 | 12.71585 | 30070 ft | 419 kts | 167° |
| 2026-04-30 12:42 | 39.78633 | 12.72760 | 29664 ft | 417 kts | 167° |
| 2026-04-30 12:42 | 39.75877 | 12.73930 | 29282 ft | 414 kts | 167° |
| 2026-04-30 12:43 | 39.73157 | 12.75084 | 28935 ft | 411 kts | 167° |
| 2026-04-30 12:43 | 39.70477 | 12.76221 | 28565 ft | 408 kts | 167° |
| 2026-04-30 12:43 | 39.67783 | 12.77362 | 28214 ft | 406 kts | 167° |
| 2026-04-30 12:43 | 39.65098 | 12.78498 | 27841 ft | 404 kts | 167° |
| 2026-04-30 12:44 | 39.62435 | 12.79623 | 27483 ft | 402 kts | 167° |
| 2026-04-30 12:44 | 39.59772 | 12.80747 | 27123 ft | 400 kts | 167° |
| 2026-04-30 12:44 | 39.57127 | 12.81864 | 26772 ft | 399 kts | 167° |
| 2026-04-30 12:44 | 39.54496 | 12.82973 | 26420 ft | 397 kts | 167° |
| 2026-04-30 12:45 | 39.51876 | 12.84078 | 26053 ft | 395 kts | 166° |
| 2026-04-30 12:45 | 39.49262 | 12.85178 | 25712 ft | 394 kts | 166° |
| 2026-04-30 12:45 | 39.46659 | 12.86273 | 25369 ft | 392 kts | 166° |
| 2026-04-30 12:45 | 39.44063 | 12.87364 | 25027 ft | 391 kts | 166° |
| 2026-04-30 12:46 | 39.41484 | 12.88448 | 24685 ft | 390 kts | 166° |
| 2026-04-30 12:46 | 39.38932 | 12.89519 | 24334 ft | 389 kts | 166° |
| 2026-04-30 12:46 | 39.36361 | 12.90597 | 23989 ft | 388 kts | 166° |
| 2026-04-30 12:46 | 39.33791 | 12.91674 | 23636 ft | 387 kts | 166° |
| 2026-04-30 12:47 | 39.31250 | 12.92740 | 23210 ft | 382 kts | 166° |
| 2026-04-30 12:47 | 39.28748 | 12.93789 | 22844 ft | 374 kts | 166° |
| 2026-04-30 12:47 | 39.26297 | 12.94816 | 22500 ft | 366 kts | 166° |
| 2026-04-30 12:47 | 39.23892 | 12.95822 | 22174 ft | 359 kts | 166° |
| 2026-04-30 12:48 | 39.21539 | 12.96805 | 21834 ft | 353 kts | 166° |
| 2026-04-30 12:48 | 39.19222 | 12.97772 | 21514 ft | 347 kts | 166° |
| 2026-04-30 12:48 | 39.16944 | 12.98722 | 21203 ft | 341 kts | 166° |
| 2026-04-30 12:48 | 39.14705 | 12.99654 | 20891 ft | 336 kts | 166° |
| 2026-04-30 12:49 | 39.12499 | 13.00572 | 20590 ft | 331 kts | 166° |
| 2026-04-30 12:49 | 39.10320 | 13.01478 | 20287 ft | 328 kts | 166° |
| 2026-04-30 12:49 | 39.08128 | 13.02388 | 19992 ft | 334 kts | 166° |
| 2026-04-30 12:49 | 39.05900 | 13.03309 | 19706 ft | 347 kts | 166° |
| 2026-04-30 12:50 | 39.03592 | 13.04266 | 19378 ft | 347 kts | 166° |
| 2026-04-30 12:50 | 39.01320 | 13.05212 | 19038 ft | 341 kts | 165° |
| 2026-04-30 12:50 | 38.99075 | 13.06146 | 18719 ft | 334 kts | 166° |
| 2026-04-30 12:50 | 38.96892 | 13.07053 | 18410 ft | 327 kts | 166° |
| 2026-04-30 12:51 | 38.94744 | 13.07943 | 18065 ft | 321 kts | 166° |
| 2026-04-30 12:51 | 38.92624 | 13.08821 | 17744 ft | 317 kts | 166° |
| 2026-04-30 12:51 | 38.90547 | 13.09680 | 17447 ft | 314 kts | 166° |
| 2026-04-30 12:51 | 38.88444 | 13.10545 | 17162 ft | 317 kts | 167° |
| 2026-04-30 12:52 | 38.86250 | 13.10874 | 16851 ft | 320 kts | 193° |
| 2026-04-30 12:52 | 38.84165 | 13.09994 | 16559 ft | 311 kts | 215° |
| 2026-04-30 12:52 | 38.82429 | 13.08482 | 16245 ft | 301 kts | 221° |
| 2026-04-30 12:52 | 38.80770 | 13.06900 | 15925 ft | 293 kts | 221° |
| 2026-04-30 12:53 | 38.79159 | 13.05342 | 15625 ft | 287 kts | 221° |
| 2026-04-30 12:53 | 38.77587 | 13.03824 | 15337 ft | 281 kts | 221° |
| 2026-04-30 12:53 | 38.76034 | 13.02333 | 15065 ft | 279 kts | 221° |
| 2026-04-30 12:53 | 38.73627 | 13.00036 | 14646 ft | 281 kts | 221° |
| 2026-04-30 12:54 | 38.70418 | 12.96988 | 14085 ft | 293 kts | 220° |
| 2026-04-30 12:54 | 38.67115 | 12.93871 | 13408 ft | 290 kts | 220° |
| 2026-04-30 12:54 | 38.63921 | 12.90872 | 12742 ft | 278 kts | 220° |
| 2026-04-30 12:54 | 38.60917 | 12.88051 | 12180 ft | 267 kts | 220° |
| 2026-04-30 12:55 | 38.57894 | 12.85210 | 11646 ft | 266 kts | 220° |
| 2026-04-30 12:55 | 38.54914 | 12.82412 | 11136 ft | 275 kts | 220° |
| 2026-04-30 12:55 | 38.51752 | 12.79448 | 10547 ft | 285 kts | 219° |
| 2026-04-30 12:55 | 38.48633 | 12.76535 | 10080 ft | 267 kts | 219° |
| 2026-04-30 12:56 | 38.45695 | 12.73792 | 9518 ft | 257 kts | 219° |
| 2026-04-30 12:56 | 38.42616 | 12.71725 | 9192 ft | 257 kts | 182° |
| 2026-04-30 12:56 | 38.39261 | 12.73221 | 8855 ft | 254 kts | 156° |
| 2026-04-30 12:56 | 38.36154 | 12.75142 | 8302 ft | 243 kts | 150° |
| 2026-04-30 12:57 | 38.34862 | 12.77361 | 7945 ft | 230 kts | 98° |
| 2026-04-30 12:57 | 38.35308 | 12.81116 | 7670 ft | 216 kts | 61° |
| 2026-04-30 12:57 | 38.36541 | 12.84641 | 7400 ft | 221 kts | 63° |
| 2026-04-30 12:57 | 38.37781 | 12.88280 | 7079 ft | 227 kts | 64° |
| 2026-04-30 12:58 | 38.39042 | 12.92006 | 6724 ft | 231 kts | 64° |
| 2026-04-30 12:58 | 38.39299 | 12.95928 | 6298 ft | 231 kts | 122° |
| 2026-04-30 12:58 | 38.36866 | 12.98176 | 6024 ft | 207 kts | 157° |
| 2026-04-30 12:58 | 38.34342 | 12.99596 | 5683 ft | 193 kts | 166° |
| 2026-04-30 12:59 | 38.32152 | 12.98528 | 5423 ft | 174 kts | 240° |
| 2026-04-30 12:59 | 38.31962 | 12.95594 | 5245 ft | 179 kts | 278° |
| 2026-04-30 12:59 | 38.31682 | 12.92530 | 5030 ft | 179 kts | 229° |
| 2026-04-30 12:59 | 38.29407 | 12.91500 | 4746 ft | 187 kts | 188° |
| 2026-04-30 13:00 | 38.26635 | 12.91025 | 4422 ft | 210 kts | 188° |
| 2026-04-30 13:00 | 38.23734 | 12.90544 | 4022 ft | 204 kts | 188° |
| 2026-04-30 13:00 | 38.21056 | 12.90110 | 3649 ft | 184 kts | 188° |
| 2026-04-30 13:00 | 38.18364 | 12.89679 | 3497 ft | 219 kts | 187° |
| 2026-04-30 13:01 | 38.15449 | 12.89214 | 3271 ft | 187 kts | 187° |
| 2026-04-30 13:01 | 38.13232 | 12.89860 | 2751 ft | 151 kts | 130° |
| 2026-04-30 13:01 | 38.12321 | 12.92191 | 2966 ft | 155 kts | 90° |
| 2026-04-30 13:01 | 38.12663 | 12.94830 | 2329 ft | 152 kts | 68° |
| 2026-04-30 13:02 | 38.13413 | 12.97342 | 1753 ft | 149 kts | 68° |
| 2026-04-30 13:02 | 38.14232 | 12.99694 | 1358 ft | 149 kts | 58° |
| 2026-04-30 13:02 | 38.15091 | 13.02009 | 1016 ft | 140 kts | 62° |
| 2026-04-30 13:02 | 38.15953 | 13.04298 | 676 ft | 140 kts | 65° |
| 2026-04-30 13:03 | 38.16719 | 13.06563 | 348 ft | 144 kts | 66° |
| 2026-04-30 13:03 | 38.17480 | 13.08839 | 60 ft | 138 kts | 65° |
| 2026-04-30 13:03 | 38.18214 | 13.10975 | 34 ft | 120 kts | 66° |
| 2026-04-30 13:03 | 38.18544 | 13.11967 | 43 ft | 14 kts | 66° |
| 2026-04-30 13:04 | 38.18564 | 13.12017 | 54 ft | 0 kts | 41° |
| 2026-04-30 13:05 | 38.18572 | 13.11985 | 50 ft | 11 kts | 261° |
| 2026-04-30 13:05 | 38.18593 | 13.11795 | 52 ft | 11 kts | 276° |
| 2026-04-30 13:05 | 38.18606 | 13.11536 | 56 ft | 21 kts | 251° |
| 2026-04-30 13:06 | 38.18604 | 13.11102 | 60 ft | 11 kts | 336° |
| 2026-04-30 13:06 | 38.18705 | 13.11128 | 61 ft | 11 kts | 66° |
| 2026-04-30 13:06 | 38.18713 | 13.11151 | 58 ft | 0 kts | 66° |